Hovedside
METAR-TAF:

METAR-TAF

Lufthavner :

Roskilde lufthavn

Roskilde, Danmark

breddegrad: 55-35N, lengdegrad: 012-08E, høyde over havet: 44 m

Gjeldene værobservasjon

Denne rapporten ble laget for 11 minutter siden, klokken 01:50 UTC
Vind 8 kt fra Nordøst, skiftende mellom Nord og Øst
Temperatur 4°C
Luftfuktighet 81%
Trykk 1032 hPa
Sikt 10 km eller mer

METAR: EKRK 190150Z AUTO 04008KT 010V090 9999NDV BKN190/// 04/01 Q1032

Tid: 03:01 (02:01 UTC)

Varsel

Denne rapporten ble laget for 2 timer og 42 minutter siden, klokken 23:19 UTC
Varsel gyldig fra 19. klokken 00 UTC til 19. klokken 09 UTC
Vind 10 kt fra Nordøst
Sikt 10 km eller mer
Brutte skyer i en høyde av 2000 ft

TAF: EKRK 182319Z 1900/1909 05010KT 9999 BKN020

Værobservasjoner og værvarsel for over 4000 flyplasser (METAR- og TAF-rapporter).

Tilgjengelige stasjoner er representert av de røde og gule prikkene på kartet.

Hold musepekeren over prikken for å se navnet på stasjonen.

Klikk så for å se værobservasjoner og -varsler.

For å forandre kartet kan du klikke på den grønne knappen med svart kryss for å zoome inn, på den grønne knappen med strek for å zoome ut, eller på de grønne pilene for å se tilstøtende kart.


METAR-TAF: